sensor_id;sensor_type;location;lat;lon;timestamp;P1;durP1;ratioP1;P2;durP2;ratioP2
74715;SDS011;63234;37.558;127.058;2023-07-13T00:01:27;2.75;;;1.30;;
74715;SDS011;63234;37.558;127.058;2023-07-13T00:03:54;1.73;;;1.20;;
74715;SDS011;63234;37.558;127.058;2023-07-13T00:06:21;4.38;;;1.65;;
74715;SDS011;63234;37.558;127.058;2023-07-13T00:08:47;5.72;;;1.92;;
74715;SDS011;63234;37.558;127.058;2023-07-13T00:11:14;2.58;;;1.50;;
74715;SDS011;63234;37.558;127.058;2023-07-13T00:13:42;3.75;;;1.40;;
74715;SDS011;63234;37.558;127.058;2023-07-13T00:16:09;2.97;;;1.33;;
74715;SDS011;63234;37.558;127.058;2023-07-13T00:18:36;3.03;;;1.50;;
74715;SDS011;63234;37.558;127.058;2023-07-13T00:21:03;3.72;;;1.48;;
74715;SDS011;63234;37.558;127.058;2023-07-13T00:23:32;1.60;;;1.17;;
74715;SDS011;63234;37.558;127.058;2023-07-13T00:26:03;2.88;;;1.40;;
74715;SDS011;63234;37.558;127.058;2023-07-13T00:28:30;3.72;;;1.50;;
74715;SDS011;63234;37.558;127.058;2023-07-13T00:30:57;3.92;;;1.40;;
74715;SDS011;63234;37.558;127.058;2023-07-13T00:33:24;4.88;;;1.70;;
74715;SDS011;63234;37.558;127.058;2023-07-13T00:35:50;3.80;;;1.40;;
74715;SDS011;63234;37.558;127.058;2023-07-13T00:38:16;2.50;;;1.50;;
74715;SDS011;63234;37.558;127.058;2023-07-13T00:40:42;3.72;;;1.83;;
74715;SDS011;63234;37.558;127.058;2023-07-13T00:43:10;2.67;;;1.52;;
74715;SDS011;63234;37.558;127.058;2023-07-13T00:48:08;4.30;;;1.40;;
74715;SDS011;63234;37.558;127.058;2023-07-13T00:50:39;3.85;;;1.50;;
74715;SDS011;63234;37.558;127.058;2023-07-13T00:53:06;4.10;;;1.95;;
74715;SDS011;63234;37.558;127.058;2023-07-13T00:55:34;5.25;;;2.47;;
74715;SDS011;63234;37.558;127.058;2023-07-13T00:58:01;3.20;;;1.52;;
74715;SDS011;63234;37.558;127.058;2023-07-13T01:00:30;2.97;;;1.65;;
74715;SDS011;63234;37.558;127.058;2023-07-13T01:02:56;5.05;;;1.50;;
74715;SDS011;63234;37.558;127.058;2023-07-13T01:05:22;6.15;;;1.60;;
74715;SDS011;63234;37.558;127.058;2023-07-13T01:07:50;5.43;;;1.42;;
74715;SDS011;63234;37.558;127.058;2023-07-13T01:10:18;4.85;;;1.55;;
74715;SDS011;63234;37.558;127.058;2023-07-13T01:12:47;7.13;;;2.05;;
74715;SDS011;63234;37.558;127.058;2023-07-13T01:18:04;4.45;;;1.65;;
74715;SDS011;63234;37.558;127.058;2023-07-13T01:20:31;9.75;;;1.83;;
74715;SDS011;63234;37.558;127.058;2023-07-13T01:23:08;3.30;;;1.60;;
74715;SDS011;63234;37.558;127.058;2023-07-13T01:25:36;7.28;;;2.05;;
74715;SDS011;63234;37.558;127.058;2023-07-13T01:28:03;6.30;;;1.63;;
74715;SDS011;63234;37.558;127.058;2023-07-13T01:30:31;4.00;;;1.77;;
74715;SDS011;63234;37.558;127.058;2023-07-13T01:32:57;4.13;;;1.95;;
74715;SDS011;63234;37.558;127.058;2023-07-13T01:35:24;5.85;;;2.00;;
74715;SDS011;63234;37.558;127.058;2023-07-13T01:37:52;4.03;;;1.67;;
74715;SDS011;63234;37.558;127.058;2023-07-13T01:40:19;4.03;;;1.67;;
74715;SDS011;63234;37.558;127.058;2023-07-13T01:42:45;9.52;;;2.20;;
74715;SDS011;63234;37.558;127.058;2023-07-13T01:45:11;3.55;;;1.58;;
74715;SDS011;63234;37.558;127.058;2023-07-13T01:47:37;6.57;;;1.50;;
74715;SDS011;63234;37.558;127.058;2023-07-13T01:50:03;4.15;;;1.60;;
74715;SDS011;63234;37.558;127.058;2023-07-13T01:52:29;4.90;;;1.80;;
74715;SDS011;63234;37.558;127.058;2023-07-13T01:54:55;5.88;;;2.00;;
74715;SDS011;63234;37.558;127.058;2023-07-13T01:57:21;8.60;;;2.25;;
74715;SDS011;63234;37.558;127.058;2023-07-13T01:59:47;3.38;;;1.60;;
74715;SDS011;63234;37.558;127.058;2023-07-13T02:02:13;5.72;;;1.80;;
74715;SDS011;63234;37.558;127.058;2023-07-13T02:04:40;3.30;;;1.60;;
74715;SDS011;63234;37.558;127.058;2023-07-13T02:07:07;3.70;;;1.60;;
74715;SDS011;63234;37.558;127.058;2023-07-13T02:09:34;3.53;;;1.60;;
74715;SDS011;63234;37.558;127.058;2023-07-13T02:12:00;3.60;;;1.88;;
74715;SDS011;63234;37.558;127.058;2023-07-13T02:14:27;4.45;;;1.70;;
74715;SDS011;63234;37.558;127.058;2023-07-13T02:16:52;3.50;;;1.60;;
74715;SDS011;63234;37.558;127.058;2023-07-13T02:19:18;3.45;;;1.50;;
74715;SDS011;63234;37.558;127.058;2023-07-13T02:21:44;3.30;;;1.67;;
74715;SDS011;63234;37.558;127.058;2023-07-13T02:24:10;6.30;;;1.92;;
74715;SDS011;63234;37.558;127.058;2023-07-13T02:26:43;5.13;;;2.10;;
74715;SDS011;63234;37.558;127.058;2023-07-13T02:29:09;3.80;;;1.85;;
74715;SDS011;63234;37.558;127.058;2023-07-13T02:31:36;4.50;;;1.80;;
74715;SDS011;63234;37.558;127.058;2023-07-13T02:34:03;7.43;;;2.03;;
74715;SDS011;63234;37.558;127.058;2023-07-13T02:36:29;4.78;;;1.60;;
74715;SDS011;63234;37.558;127.058;2023-07-13T02:38:57;6.15;;;1.48;;
74715;SDS011;63234;37.558;127.058;2023-07-13T02:41:26;5.07;;;1.75;;
74715;SDS011;63234;37.558;127.058;2023-07-13T02:43:52;5.65;;;1.60;;
74715;SDS011;63234;37.558;127.058;2023-07-13T02:46:18;4.28;;;2.13;;
74715;SDS011;63234;37.558;127.058;2023-07-13T02:48:45;9.68;;;2.00;;
74715;SDS011;63234;37.558;127.058;2023-07-13T02:51:11;9.88;;;2.13;;
74715;SDS011;63234;37.558;127.058;2023-07-13T02:53:37;7.57;;;1.90;;
74715;SDS011;63234;37.558;127.058;2023-07-13T02:56:03;5.57;;;1.60;;
74715;SDS011;63234;37.558;127.058;2023-07-13T02:58:30;6.32;;;1.70;;
74715;SDS011;63234;37.558;127.058;2023-07-13T03:00:57;6.70;;;1.73;;
74715;SDS011;63234;37.558;127.058;2023-07-13T03:03:23;5.47;;;1.90;;
74715;SDS011;63234;37.558;127.058;2023-07-13T03:05:57;6.20;;;2.05;;
74715;SDS011;63234;37.558;127.058;2023-07-13T03:08:25;8.10;;;2.17;;
74715;SDS011;63234;37.558;127.058;2023-07-13T03:11:01;6.68;;;2.05;;
74715;SDS011;63234;37.558;127.058;2023-07-13T03:13:32;3.63;;;2.00;;
74715;SDS011;63234;37.558;127.058;2023-07-13T03:15:58;5.20;;;1.63;;
74715;SDS011;63234;37.558;127.058;2023-07-13T03:18:26;3.85;;;1.98;;
74715;SDS011;63234;37.558;127.058;2023-07-13T03:20:53;8.18;;;2.00;;
74715;SDS011;63234;37.558;127.058;2023-07-13T03:23:20;4.05;;;1.80;;
74715;SDS011;63234;37.558;127.058;2023-07-13T03:25:47;3.00;;;1.40;;
74715;SDS011;63234;37.558;127.058;2023-07-13T03:28:14;4.22;;;1.50;;
74715;SDS011;63234;37.558;127.058;2023-07-13T03:30:41;5.40;;;1.90;;
74715;SDS011;63234;37.558;127.058;2023-07-13T03:33:07;4.35;;;1.65;;
74715;SDS011;63234;37.558;127.058;2023-07-13T03:35:33;10.23;;;2.22;;
74715;SDS011;63234;37.558;127.058;2023-07-13T03:38:00;7.65;;;1.70;;
74715;SDS011;63234;37.558;127.058;2023-07-13T03:40:27;4.28;;;1.50;;
74715;SDS011;63234;37.558;127.058;2023-07-13T03:42:53;4.88;;;1.60;;
74715;SDS011;63234;37.558;127.058;2023-07-13T03:45:19;3.00;;;1.70;;
74715;SDS011;63234;37.558;127.058;2023-07-13T03:47:45;3.38;;;1.73;;
74715;SDS011;63234;37.558;127.058;2023-07-13T03:50:11;2.22;;;1.40;;
74715;SDS011;63234;37.558;127.058;2023-07-13T03:52:37;4.38;;;1.83;;
74715;SDS011;63234;37.558;127.058;2023-07-13T03:55:03;4.00;;;1.77;;
74715;SDS011;63234;37.558;127.058;2023-07-13T03:57:31;3.60;;;1.75;;
74715;SDS011;63234;37.558;127.058;2023-07-13T03:59:57;6.72;;;1.35;;
74715;SDS011;63234;37.558;127.058;2023-07-13T04:02:23;5.53;;;2.22;;
74715;SDS011;63234;37.558;127.058;2023-07-13T04:04:49;4.50;;;1.95;;
74715;SDS011;63234;37.558;127.058;2023-07-13T04:07:15;9.45;;;1.90;;
74715;SDS011;63234;37.558;127.058;2023-07-13T04:09:41;4.63;;;1.52;;
74715;SDS011;63234;37.558;127.058;2023-07-13T04:12:07;6.28;;;1.83;;
74715;SDS011;63234;37.558;127.058;2023-07-13T04:14:33;3.83;;;1.77;;
74715;SDS011;63234;37.558;127.058;2023-07-13T04:16:59;3.72;;;1.70;;
74715;SDS011;63234;37.558;127.058;2023-07-13T04:19:24;5.45;;;1.80;;
74715;SDS011;63234;37.558;127.058;2023-07-13T04:21:50;7.00;;;1.65;;
74715;SDS011;63234;37.558;127.058;2023-07-13T04:24:16;5.45;;;1.73;;
74715;SDS011;63234;37.558;127.058;2023-07-13T04:26:42;8.07;;;1.70;;
74715;SDS011;63234;37.558;127.058;2023-07-13T04:29:09;6.00;;;1.80;;
74715;SDS011;63234;37.558;127.058;2023-07-13T04:31:35;3.65;;;1.90;;
74715;SDS011;63234;37.558;127.058;2023-07-13T04:34:00;3.42;;;1.90;;
74715;SDS011;63234;37.558;127.058;2023-07-13T04:36:28;2.45;;;1.67;;
74715;SDS011;63234;37.558;127.058;2023-07-13T04:38:54;6.40;;;1.88;;
74715;SDS011;63234;37.558;127.058;2023-07-13T04:41:20;3.97;;;1.80;;
74715;SDS011;63234;37.558;127.058;2023-07-13T04:43:47;4.70;;;1.73;;
74715;SDS011;63234;37.558;127.058;2023-07-13T04:46:14;5.63;;;1.60;;
74715;SDS011;63234;37.558;127.058;2023-07-13T04:48:42;4.47;;;1.85;;
74715;SDS011;63234;37.558;127.058;2023-07-13T04:51:09;3.90;;;1.77;;
74715;SDS011;63234;37.558;127.058;2023-07-13T04:53:35;4.07;;;1.70;;
74715;SDS011;63234;37.558;127.058;2023-07-13T04:56:02;6.85;;;2.20;;
74715;SDS011;63234;37.558;127.058;2023-07-13T04:58:28;2.90;;;1.35;;
74715;SDS011;63234;37.558;127.058;2023-07-13T05:01:01;6.93;;;1.85;;
74715;SDS011;63234;37.558;127.058;2023-07-13T05:03:29;3.70;;;1.60;;
74715;SDS011;63234;37.558;127.058;2023-07-13T05:05:56;4.05;;;1.80;;
74715;SDS011;63234;37.558;127.058;2023-07-13T05:08:23;9.07;;;2.20;;
74715;SDS011;63234;37.558;127.058;2023-07-13T05:10:50;5.22;;;1.95;;
74715;SDS011;63234;37.558;127.058;2023-07-13T05:13:16;4.68;;;1.70;;
74715;SDS011;63234;37.558;127.058;2023-07-13T05:15:42;5.03;;;1.60;;
74715;SDS011;63234;37.558;127.058;2023-07-13T05:18:08;3.25;;;1.73;;
74715;SDS011;63234;37.558;127.058;2023-07-13T05:20:34;5.55;;;1.60;;
74715;SDS011;63234;37.558;127.058;2023-07-13T05:23:00;6.68;;;1.80;;
74715;SDS011;63234;37.558;127.058;2023-07-13T05:25:26;6.38;;;1.52;;
74715;SDS011;63234;37.558;127.058;2023-07-13T05:27:52;6.90;;;1.85;;
74715;SDS011;63234;37.558;127.058;2023-07-13T05:30:18;7.75;;;2.00;;
74715;SDS011;63234;37.558;127.058;2023-07-13T05:32:44;3.47;;;1.85;;
74715;SDS011;63234;37.558;127.058;2023-07-13T05:35:11;2.15;;;1.33;;
74715;SDS011;63234;37.558;127.058;2023-07-13T05:37:37;8.15;;;1.98;;
74715;SDS011;63234;37.558;127.058;2023-07-13T05:40:03;6.53;;;1.92;;
74715;SDS011;63234;37.558;127.058;2023-07-13T05:42:30;2.33;;;1.50;;
74715;SDS011;63234;37.558;127.058;2023-07-13T05:44:56;3.85;;;1.70;;
74715;SDS011;63234;37.558;127.058;2023-07-13T05:47:22;5.05;;;1.90;;
74715;SDS011;63234;37.558;127.058;2023-07-13T05:49:48;3.03;;;1.45;;
74715;SDS011;63234;37.558;127.058;2023-07-13T05:52:14;6.03;;;1.50;;
74715;SDS011;63234;37.558;127.058;2023-07-13T05:54:40;4.47;;;1.63;;
74715;SDS011;63234;37.558;127.058;2023-07-13T05:57:06;5.10;;;1.58;;
74715;SDS011;63234;37.558;127.058;2023-07-13T05:59:32;2.78;;;1.70;;
74715;SDS011;63234;37.558;127.058;2023-07-13T06:01:58;3.95;;;1.52;;
74715;SDS011;63234;37.558;127.058;2023-07-13T06:04:24;8.23;;;1.95;;
74715;SDS011;63234;37.558;127.058;2023-07-13T06:06:50;4.70;;;1.77;;
74715;SDS011;63234;37.558;127.058;2023-07-13T06:09:16;4.53;;;1.60;;
74715;SDS011;63234;37.558;127.058;2023-07-13T06:11:42;5.22;;;2.40;;
74715;SDS011;63234;37.558;127.058;2023-07-13T06:14:08;3.90;;;2.00;;
74715;SDS011;63234;37.558;127.058;2023-07-13T06:16:34;6.22;;;2.20;;
74715;SDS011;63234;37.558;127.058;2023-07-13T06:19:00;4.28;;;1.60;;
74715;SDS011;63234;37.558;127.058;2023-07-13T06:21:26;5.32;;;1.55;;
74715;SDS011;63234;37.558;127.058;2023-07-13T06:23:52;4.43;;;1.60;;
74715;SDS011;63234;37.558;127.058;2023-07-13T06:26:18;7.72;;;1.52;;
74715;SDS011;63234;37.558;127.058;2023-07-13T06:28:45;4.32;;;1.58;;
74715;SDS011;63234;37.558;127.058;2023-07-13T06:31:12;4.47;;;1.70;;
74715;SDS011;63234;37.558;127.058;2023-07-13T06:33:39;6.35;;;1.70;;
74715;SDS011;63234;37.558;127.058;2023-07-13T06:36:06;4.63;;;1.55;;
74715;SDS011;63234;37.558;127.058;2023-07-13T06:38:33;2.97;;;1.98;;
74715;SDS011;63234;37.558;127.058;2023-07-13T06:41:00;4.40;;;1.38;;
74715;SDS011;63234;37.558;127.058;2023-07-13T06:43:26;4.65;;;1.58;;
74715;SDS011;63234;37.558;127.058;2023-07-13T06:45:54;2.80;;;1.40;;
74715;SDS011;63234;37.558;127.058;2023-07-13T06:48:21;2.33;;;1.30;;
74715;SDS011;63234;37.558;127.058;2023-07-13T06:50:49;3.72;;;1.60;;
74715;SDS011;63234;37.558;127.058;2023-07-13T06:53:17;5.15;;;2.03;;
74715;SDS011;63234;37.558;127.058;2023-07-13T06:55:44;3.40;;;1.77;;
74715;SDS011;63234;37.558;127.058;2023-07-13T06:58:11;4.50;;;1.60;;
74715;SDS011;63234;37.558;127.058;2023-07-13T07:00:37;5.00;;;1.70;;
74715;SDS011;63234;37.558;127.058;2023-07-13T07:03:05;5.53;;;2.03;;
74715;SDS011;63234;37.558;127.058;2023-07-13T07:05:31;6.97;;;1.77;;
74715;SDS011;63234;37.558;127.058;2023-07-13T07:07:58;2.53;;;1.55;;
74715;SDS011;63234;37.558;127.058;2023-07-13T07:10:24;4.70;;;1.77;;
74715;SDS011;63234;37.558;127.058;2023-07-13T07:12:51;5.20;;;1.60;;
74715;SDS011;63234;37.558;127.058;2023-07-13T07:15:17;3.30;;;1.75;;
74715;SDS011;63234;37.558;127.058;2023-07-13T07:17:44;4.65;;;2.10;;
74715;SDS011;63234;37.558;127.058;2023-07-13T07:20:10;3.45;;;1.80;;
74715;SDS011;63234;37.558;127.058;2023-07-13T07:22:36;2.83;;;1.65;;
74715;SDS011;63234;37.558;127.058;2023-07-13T07:25:02;3.20;;;1.83;;
74715;SDS011;63234;37.558;127.058;2023-07-13T07:27:29;5.25;;;2.15;;
74715;SDS011;63234;37.558;127.058;2023-07-13T07:29:54;3.20;;;1.60;;
74715;SDS011;63234;37.558;127.058;2023-07-13T07:32:22;3.13;;;1.50;;
74715;SDS011;63234;37.558;127.058;2023-07-13T07:34:49;3.40;;;1.85;;
74715;SDS011;63234;37.558;127.058;2023-07-13T07:37:15;3.85;;;1.63;;
74715;SDS011;63234;37.558;127.058;2023-07-13T07:39:42;3.92;;;1.65;;
74715;SDS011;63234;37.558;127.058;2023-07-13T07:42:09;5.00;;;1.58;;
74715;SDS011;63234;37.558;127.058;2023-07-13T07:44:35;5.30;;;1.73;;
74715;SDS011;63234;37.558;127.058;2023-07-13T07:47:01;4.80;;;1.90;;
74715;SDS011;63234;37.558;127.058;2023-07-13T07:49:27;4.28;;;1.90;;
74715;SDS011;63234;37.558;127.058;2023-07-13T07:51:53;3.40;;;2.00;;
74715;SDS011;63234;37.558;127.058;2023-07-13T07:54:19;6.57;;;2.45;;
74715;SDS011;63234;37.558;127.058;2023-07-13T07:56:44;4.07;;;1.90;;
74715;SDS011;63234;37.558;127.058;2023-07-13T07:59:10;6.25;;;1.92;;
74715;SDS011;63234;37.558;127.058;2023-07-13T08:01:36;5.55;;;2.20;;
74715;SDS011;63234;37.558;127.058;2023-07-13T08:04:03;10.23;;;2.22;;
74715;SDS011;63234;37.558;127.058;2023-07-13T08:06:29;4.75;;;1.98;;
74715;SDS011;63234;37.558;127.058;2023-07-13T08:08:57;3.78;;;2.08;;
74715;SDS011;63234;37.558;127.058;2023-07-13T08:11:23;7.47;;;2.75;;
74715;SDS011;63234;37.558;127.058;2023-07-13T08:13:49;4.25;;;2.15;;
74715;SDS011;63234;37.558;127.058;2023-07-13T08:16:16;5.22;;;1.80;;
74715;SDS011;63234;37.558;127.058;2023-07-13T08:18:42;3.58;;;1.70;;
74715;SDS011;63234;37.558;127.058;2023-07-13T08:21:08;4.50;;;1.88;;
74715;SDS011;63234;37.558;127.058;2023-07-13T08:23:34;5.13;;;1.95;;
74715;SDS011;63234;37.558;127.058;2023-07-13T08:26:01;3.35;;;1.60;;
74715;SDS011;63234;37.558;127.058;2023-07-13T08:28:28;7.30;;;2.00;;
74715;SDS011;63234;37.558;127.058;2023-07-13T08:30:54;3.42;;;1.98;;
74715;SDS011;63234;37.558;127.058;2023-07-13T08:33:21;5.75;;;2.05;;
74715;SDS011;63234;37.558;127.058;2023-07-13T08:35:51;5.05;;;2.30;;
74715;SDS011;63234;37.558;127.058;2023-07-13T08:38:17;9.32;;;1.85;;
74715;SDS011;63234;37.558;127.058;2023-07-13T08:40:44;4.82;;;1.90;;
74715;SDS011;63234;37.558;127.058;2023-07-13T08:43:15;5.95;;;2.15;;
74715;SDS011;63234;37.558;127.058;2023-07-13T08:45:44;5.38;;;2.22;;
74715;SDS011;63234;37.558;127.058;2023-07-13T08:48:17;6.13;;;2.20;;
74715;SDS011;63234;37.558;127.058;2023-07-13T08:50:56;4.88;;;2.53;;
74715;SDS011;63234;37.558;127.058;2023-07-13T08:53:29;8.65;;;2.50;;
74715;SDS011;63234;37.558;127.058;2023-07-13T08:56:01;4.20;;;2.40;;
74715;SDS011;63234;37.558;127.058;2023-07-13T08:58:27;8.20;;;2.05;;
74715;SDS011;63234;37.558;127.058;2023-07-13T09:01:15;6.03;;;2.28;;
74715;SDS011;63234;37.558;127.058;2023-07-13T09:03:53;5.10;;;2.35;;
74715;SDS011;63234;37.558;127.058;2023-07-13T09:09:23;4.40;;;2.60;;
74715;SDS011;63234;37.558;127.058;2023-07-13T09:12:01;4.22;;;2.38;;
74715;SDS011;63234;37.558;127.058;2023-07-13T09:14:56;3.75;;;1.60;;
74715;SDS011;63234;37.558;127.058;2023-07-13T09:17:29;5.15;;;2.20;;
74715;SDS011;63234;37.558;127.058;2023-07-13T09:20:10;4.72;;;2.33;;
74715;SDS011;63234;37.558;127.058;2023-07-13T09:22:42;4.35;;;2.20;;
74715;SDS011;63234;37.558;127.058;2023-07-13T09:28:15;7.38;;;2.35;;
74715;SDS011;63234;37.558;127.058;2023-07-13T09:33:23;4.55;;;2.45;;
74715;SDS011;63234;37.558;127.058;2023-07-13T09:35:54;4.53;;;1.98;;
74715;SDS011;63234;37.558;127.058;2023-07-13T09:38:24;5.55;;;2.60;;
74715;SDS011;63234;37.558;127.058;2023-07-13T09:46:43;4.97;;;2.50;;
74715;SDS011;63234;37.558;127.058;2023-07-13T09:49:11;4.05;;;2.42;;
74715;SDS011;63234;37.558;127.058;2023-07-13T09:51:38;16.20;;;4.05;;
74715;SDS011;63234;37.558;127.058;2023-07-13T09:54:18;5.10;;;2.03;;
74715;SDS011;63234;37.558;127.058;2023-07-13T09:56:46;5.80;;;2.55;;
74715;SDS011;63234;37.558;127.058;2023-07-13T09:59:21;4.97;;;2.38;;
74715;SDS011;63234;37.558;127.058;2023-07-13T10:01:49;5.40;;;2.85;;
74715;SDS011;63234;37.558;127.058;2023-07-13T10:04:18;3.50;;;2.30;;
74715;SDS011;63234;37.558;127.058;2023-07-13T10:06:45;4.38;;;2.75;;
74715;SDS011;63234;37.558;127.058;2023-07-13T10:09:18;7.32;;;3.03;;
74715;SDS011;63234;37.558;127.058;2023-07-13T10:11:44;7.28;;;2.53;;
74715;SDS011;63234;37.558;127.058;2023-07-13T10:14:20;8.18;;;2.72;;
74715;SDS011;63234;37.558;127.058;2023-07-13T10:16:52;5.57;;;2.60;;
74715;SDS011;63234;37.558;127.058;2023-07-13T10:19:26;8.35;;;3.38;;
74715;SDS011;63234;37.558;127.058;2023-07-13T10:21:58;9.23;;;3.97;;
74715;SDS011;63234;37.558;127.058;2023-07-13T10:24:33;6.28;;;2.00;;
74715;SDS011;63234;37.558;127.058;2023-07-13T10:29:46;5.93;;;2.15;;
74715;SDS011;63234;37.558;127.058;2023-07-13T10:32:33;3.90;;;2.22;;
74715;SDS011;63234;37.558;127.058;2023-07-13T10:34:59;6.50;;;2.17;;
74715;SDS011;63234;37.558;127.058;2023-07-13T10:37:40;4.18;;;2.35;;
74715;SDS011;63234;37.558;127.058;2023-07-13T10:40:07;5.25;;;2.55;;
74715;SDS011;63234;37.558;127.058;2023-07-13T10:42:44;7.10;;;2.78;;
74715;SDS011;63234;37.558;127.058;2023-07-13T10:45:22;5.55;;;2.25;;
74715;SDS011;63234;37.558;127.058;2023-07-13T10:47:50;7.63;;;2.17;;
74715;SDS011;63234;37.558;127.058;2023-07-13T10:50:22;8.77;;;3.15;;
74715;SDS011;63234;37.558;127.058;2023-07-13T10:52:51;11.38;;;2.97;;
74715;SDS011;63234;37.558;127.058;2023-07-13T11:03:33;6.18;;;2.22;;
74715;SDS011;63234;37.558;127.058;2023-07-13T11:06:29;8.95;;;3.10;;
74715;SDS011;63234;37.558;127.058;2023-07-13T11:09:17;5.60;;;2.78;;
74715;SDS011;63234;37.558;127.058;2023-07-13T11:12:01;8.20;;;2.90;;
74715;SDS011;63234;37.558;127.058;2023-07-13T11:14:36;8.63;;;3.78;;
74715;SDS011;63234;37.558;127.058;2023-07-13T11:17:49;8.88;;;3.35;;
74715;SDS011;63234;37.558;127.058;2023-07-13T11:22:45;6.72;;;3.17;;
74715;SDS011;63234;37.558;127.058;2023-07-13T11:25:26;14.35;;;4.28;;
74715;SDS011;63234;37.558;127.058;2023-07-13T11:33:03;8.55;;;3.28;;
74715;SDS011;63234;37.558;127.058;2023-07-13T11:35:36;16.13;;;4.25;;
74715;SDS011;63234;37.558;127.058;2023-07-13T11:38:09;9.65;;;2.65;;
74715;SDS011;63234;37.558;127.058;2023-07-13T11:41:06;7.65;;;2.75;;
74715;SDS011;63234;37.558;127.058;2023-07-13T11:43:41;7.20;;;2.58;;
74715;SDS011;63234;37.558;127.058;2023-07-13T11:46:20;11.20;;;3.70;;
74715;SDS011;63234;37.558;127.058;2023-07-13T11:48:48;6.05;;;2.53;;
74715;SDS011;63234;37.558;127.058;2023-07-13T11:54:01;12.82;;;3.45;;
74715;SDS011;63234;37.558;127.058;2023-07-13T11:56:39;19.20;;;4.90;;
74715;SDS011;63234;37.558;127.058;2023-07-13T11:59:07;16.23;;;4.93;;
74715;SDS011;63234;37.558;127.058;2023-07-13T12:01:38;16.20;;;4.10;;
74715;SDS011;63234;37.558;127.058;2023-07-13T12:04:18;6.38;;;2.55;;
74715;SDS011;63234;37.558;127.058;2023-07-13T12:07:14;6.18;;;2.90;;
74715;SDS011;63234;37.558;127.058;2023-07-13T12:09:42;6.13;;;2.53;;
74715;SDS011;63234;37.558;127.058;2023-07-13T12:12:14;4.93;;;2.30;;
74715;SDS011;63234;37.558;127.058;2023-07-13T12:14:44;6.60;;;2.95;;
74715;SDS011;63234;37.558;127.058;2023-07-13T12:19:46;6.57;;;2.65;;
74715;SDS011;63234;37.558;127.058;2023-07-13T12:22:14;11.18;;;2.63;;
74715;SDS011;63234;37.558;127.058;2023-07-13T12:24:43;5.68;;;2.88;;
74715;SDS011;63234;37.558;127.058;2023-07-13T12:27:20;5.90;;;2.55;;
74715;SDS011;63234;37.558;127.058;2023-07-13T12:29:52;6.97;;;2.60;;
74715;SDS011;63234;37.558;127.058;2023-07-13T12:32:26;7.47;;;2.83;;
74715;SDS011;63234;37.558;127.058;2023-07-13T12:34:54;9.13;;;2.50;;
74715;SDS011;63234;37.558;127.058;2023-07-13T12:37:21;6.55;;;2.78;;
74715;SDS011;63234;37.558;127.058;2023-07-13T12:39:47;6.07;;;2.53;;
74715;SDS011;63234;37.558;127.058;2023-07-13T12:45:20;6.80;;;2.53;;
74715;SDS011;63234;37.558;127.058;2023-07-13T12:47:54;10.10;;;3.60;;
74715;SDS011;63234;37.558;127.058;2023-07-13T12:50:34;9.35;;;2.90;;
74715;SDS011;63234;37.558;127.058;2023-07-13T12:53:05;7.95;;;3.10;;
74715;SDS011;63234;37.558;127.058;2023-07-13T12:55:41;7.75;;;2.60;;
74715;SDS011;63234;37.558;127.058;2023-07-13T12:58:28;7.43;;;3.00;;
74715;SDS011;63234;37.558;127.058;2023-07-13T13:01:02;12.27;;;3.92;;
74715;SDS011;63234;37.558;127.058;2023-07-13T13:03:34;10.82;;;3.25;;
74715;SDS011;63234;37.558;127.058;2023-07-13T13:06:04;12.60;;;4.00;;
74715;SDS011;63234;37.558;127.058;2023-07-13T13:08:45;12.65;;;4.07;;
74715;SDS011;63234;37.558;127.058;2023-07-13T13:11:17;16.45;;;4.43;;
74715;SDS011;63234;37.558;127.058;2023-07-13T13:13:44;6.95;;;3.00;;
74715;SDS011;63234;37.558;127.058;2023-07-13T13:16:12;12.60;;;3.95;;
74715;SDS011;63234;37.558;127.058;2023-07-13T13:18:44;18.95;;;4.60;;
74715;SDS011;63234;37.558;127.058;2023-07-13T13:21:11;12.98;;;4.05;;
74715;SDS011;63234;37.558;127.058;2023-07-13T13:23:37;20.27;;;5.43;;
74715;SDS011;63234;37.558;127.058;2023-07-13T13:26:05;15.90;;;4.53;;
74715;SDS011;63234;37.558;127.058;2023-07-13T13:28:35;4.45;;;2.45;;
74715;SDS011;63234;37.558;127.058;2023-07-13T13:31:01;4.47;;;2.33;;
74715;SDS011;63234;37.558;127.058;2023-07-13T13:33:27;5.70;;;2.42;;
74715;SDS011;63234;37.558;127.058;2023-07-13T13:35:53;5.43;;;2.42;;
74715;SDS011;63234;37.558;127.058;2023-07-13T13:38:22;11.77;;;2.85;;
74715;SDS011;63234;37.558;127.058;2023-07-13T13:40:51;3.63;;;2.10;;
74715;SDS011;63234;37.558;127.058;2023-07-13T13:43:21;3.72;;;1.65;;
74715;SDS011;63234;37.558;127.058;2023-07-13T13:45:52;4.70;;;2.22;;
74715;SDS011;63234;37.558;127.058;2023-07-13T13:48:22;3.58;;;2.10;;
74715;SDS011;63234;37.558;127.058;2023-07-13T13:50:56;5.70;;;2.40;;
74715;SDS011;63234;37.558;127.058;2023-07-13T13:53:23;4.25;;;1.98;;
74715;SDS011;63234;37.558;127.058;2023-07-13T13:55:50;4.53;;;2.28;;
74715;SDS011;63234;37.558;127.058;2023-07-13T13:58:18;6.50;;;2.28;;
74715;SDS011;63234;37.558;127.058;2023-07-13T14:00:45;6.60;;;2.80;;
74715;SDS011;63234;37.558;127.058;2023-07-13T14:03:17;8.27;;;3.38;;
74715;SDS011;63234;37.558;127.058;2023-07-13T14:05:45;6.95;;;2.42;;
74715;SDS011;63234;37.558;127.058;2023-07-13T14:08:15;10.40;;;3.13;;
74715;SDS011;63234;37.558;127.058;2023-07-13T14:10:45;10.40;;;3.30;;
74715;SDS011;63234;37.558;127.058;2023-07-13T14:13:18;9.45;;;2.55;;
74715;SDS011;63234;37.558;127.058;2023-07-13T14:15:56;10.95;;;3.72;;
74715;SDS011;63234;37.558;127.058;2023-07-13T14:18:23;9.73;;;2.70;;
74715;SDS011;63234;37.558;127.058;2023-07-13T14:20:50;9.40;;;2.85;;
74715;SDS011;63234;37.558;127.058;2023-07-13T14:23:17;4.93;;;2.20;;
74715;SDS011;63234;37.558;127.058;2023-07-13T14:25:46;7.38;;;2.65;;
74715;SDS011;63234;37.558;127.058;2023-07-13T14:28:23;8.75;;;3.05;;
74715;SDS011;63234;37.558;127.058;2023-07-13T14:30:51;11.18;;;3.63;;
74715;SDS011;63234;37.558;127.058;2023-07-13T14:33:22;12.50;;;3.53;;
74715;SDS011;63234;37.558;127.058;2023-07-13T14:35:50;6.80;;;2.60;;
74715;SDS011;63234;37.558;127.058;2023-07-13T14:38:17;13.73;;;4.05;;
74715;SDS011;63234;37.558;127.058;2023-07-13T14:40:59;11.98;;;3.38;;
74715;SDS011;63234;37.558;127.058;2023-07-13T14:43:24;4.75;;;2.38;;
74715;SDS011;63234;37.558;127.058;2023-07-13T14:45:53;6.93;;;2.78;;
74715;SDS011;63234;37.558;127.058;2023-07-13T14:48:22;5.55;;;2.42;;
74715;SDS011;63234;37.558;127.058;2023-07-13T14:50:56;5.60;;;2.10;;
74715;SDS011;63234;37.558;127.058;2023-07-13T14:53:24;6.07;;;2.13;;
74715;SDS011;63234;37.558;127.058;2023-07-13T14:55:54;5.85;;;2.63;;
74715;SDS011;63234;37.558;127.058;2023-07-13T14:58:20;5.60;;;2.67;;
74715;SDS011;63234;37.558;127.058;2023-07-13T15:00:46;11.02;;;3.65;;
74715;SDS011;63234;37.558;127.058;2023-07-13T15:03:17;15.38;;;4.45;;
74715;SDS011;63234;37.558;127.058;2023-07-13T15:05:48;12.45;;;3.65;;
74715;SDS011;63234;37.558;127.058;2023-07-13T15:08:15;18.60;;;4.13;;
74715;SDS011;63234;37.558;127.058;2023-07-13T15:10:41;10.00;;;2.55;;
74715;SDS011;63234;37.558;127.058;2023-07-13T15:13:20;5.13;;;2.40;;
74715;SDS011;63234;37.558;127.058;2023-07-13T15:15:49;4.88;;;2.30;;
74715;SDS011;63234;37.558;127.058;2023-07-13T15:18:17;7.60;;;2.75;;